Time;durP1;ratioP1;P1;durP2;ratioP2;P2;SDS_P1;SDS_P2;PMS_P1;PMS_P2;Temp;Humidity;BMP_temperature;BMP_pressure;BME280_temperature;BME280_humidity;BME280_pressure;Samples;Min_cycle;Max_cycle;Signal;HPM_P1;HPM_P2
2021/06/15 00:01:45;;;;;;;0.30;0.20;;;;;;;-148.58;100.00;55229.56;5033698;28;20021;-58
2021/06/15 00:04:10;;;;;;;1.23;0.35;;;;;;;-148.58;100.00;55229.56;5033792;28;20393;-58
2021/06/15 00:06:35;;;;;;;0.30;0.10;;;;;;;-148.58;100.00;55229.56;5033713;28;20396;-59
2021/06/15 00:09:00;;;;;;;0.20;0.15;;;;;;;-148.58;100.00;55229.56;5033475;28;20056;-58
2021/06/15 00:11:26;;;;;;;0.52;0.35;;;;;;;-148.58;100.00;55229.56;5033838;28;20025;-58
2021/06/15 00:13:51;;;;;;;1.08;0.30;;;;;;;-148.58;100.00;55229.56;5033267;28;20448;-58
2021/06/15 00:16:17;;;;;;;1.25;0.30;;;;;;;-148.58;100.00;55229.56;5033184;28;20026;-57
2021/06/15 00:18:42;;;;;;;0.55;0.20;;;;;;;-148.58;100.00;55229.56;5033560;28;20038;-58
2021/06/15 00:21:07;;;;;;;0.80;0.28;;;;;;;-148.58;100.00;55229.56;5033556;28;20051;-58
2021/06/15 00:23:33;;;;;;;0.47;0.20;;;;;;;-148.58;100.00;55229.56;5033562;28;20032;-58
2021/06/15 00:25:58;;;;;;;0.50;0.05;;;;;;;-148.58;100.00;55229.56;5033354;28;20460;-58
2021/06/15 00:28:23;;;;;;;0.60;0.20;;;;;;;-148.58;100.00;55229.56;5033380;28;20385;-57
2021/06/15 00:30:48;;;;;;;0.85;0.20;;;;;;;-148.58;100.00;55229.56;5033202;28;20028;-58
2021/06/15 00:33:14;;;;;;;0.93;0.20;;;;;;;-148.58;100.00;55229.56;5033213;28;20064;-57
2021/06/15 00:35:39;;;;;;;0.73;0.32;;;;;;;-148.58;100.00;55229.56;5033261;28;20468;-58
2021/06/15 00:38:04;;;;;;;0.77;0.20;;;;;;;-148.58;100.00;55229.56;5015439;28;20380;-58
2021/06/15 00:40:30;;;;;;;0.17;0.10;;;;;;;-148.58;100.00;55229.56;5033485;28;20018;-58
2021/06/15 00:42:55;;;;;;;0.73;0.20;;;;;;;-148.58;100.00;55229.56;5032596;28;20018;-58
2021/06/15 00:45:24;;;;;;;0.20;0.20;;;;;;;-148.58;100.00;55229.56;5033266;28;20029;-57
2021/06/15 00:47:50;;;;;;;0.52;0.10;;;;;;;-148.58;100.00;55229.56;5032949;28;20032;-58
2021/06/15 00:50:17;;;;;;;1.00;0.40;;;;;;;-148.58;100.00;55229.56;5033038;28;20256;-58
2021/06/15 00:52:43;;;;;;;0.30;0.20;;;;;;;-148.58;100.00;55229.56;5032880;28;20040;-58
2021/06/15 00:55:08;;;;;;;1.10;0.20;;;;;;;-148.58;100.00;55229.56;5033513;28;20272;-58
2021/06/15 00:57:34;;;;;;;0.47;0.10;;;;;;;-148.58;100.00;55229.56;5019934;28;20053;-58
2021/06/15 00:59:59;;;;;;;0.52;0.20;;;;;;;-148.58;100.00;55229.56;5013277;28;20112;-57
2021/06/15 01:02:27;;;;;;;0.65;0.20;;;;;;;-148.58;100.00;55229.56;5012931;28;20038;-58
2021/06/15 01:04:53;;;;;;;1.02;0.10;;;;;;;-148.58;100.00;55229.56;5029708;28;20107;-58
2021/06/15 01:07:53;;;;;;;0.60;0.20;;;;;;;-148.58;100.00;55229.56;5032847;28;20460;-58
2021/06/15 01:10:38;;;;;;;0.70;0.20;;;;;;;-148.58;100.00;55229.56;5032753;28;20044;-58
2021/06/15 01:13:16;;;;;;;0.80;0.40;;;;;;;-148.58;100.00;55229.56;5032704;28;20034;-58
2021/06/15 01:16:32;;;;;;;1.35;0.30;;;;;;;-148.58;100.00;55229.56;5032566;28;20040;-58
2021/06/15 01:19:11;;;;;;;1.02;0.30;;;;;;;-148.58;100.00;55229.56;4951940;29;20546;-58
2021/06/15 01:21:47;;;;;;;0.20;0.10;;;;;;;-148.58;100.00;55229.56;4952386;29;20398;-58
2021/06/15 01:24:27;;;;;;;1.35;0.47;;;;;;;-148.58;100.00;55229.56;4952021;29;20438;-57
2021/06/15 01:27:13;;;;;;;0.45;0.40;;;;;;;-148.58;100.00;55229.56;4951962;29;20655;-58
2021/06/15 01:29:42;;;;;;;0.75;0.52;;;;;;;-148.58;100.00;55229.56;4952023;29;20097;-58
2021/06/15 01:32:15;;;;;;;1.02;0.47;;;;;;;-148.58;100.00;55229.56;4952096;29;20038;-58
2021/06/15 01:34:43;;;;;;;0.63;0.10;;;;;;;-148.58;100.00;55229.56;4951183;29;20398;-57
2021/06/15 01:37:23;;;;;;;0.60;0.32;;;;;;;-148.58;100.00;55229.56;4951681;29;20039;-58
2021/06/15 01:39:57;;;;;;;0.43;0.13;;;;;;;-148.58;100.00;55229.56;4951793;29;20031;-58
2021/06/15 01:42:32;;;;;;;0.47;0.20;;;;;;;-148.58;100.00;55229.56;4952029;29;20101;-58
2021/06/15 01:45:15;;;;;;;0.28;0.10;;;;;;;-148.58;100.00;55229.56;4951825;29;20471;-57
2021/06/15 01:47:49;;;;;;;1.02;0.20;;;;;;;-148.58;100.00;55229.56;4951864;29;20191;-58
2021/06/15 01:50:17;;;;;;;0.52;0.20;;;;;;;-148.58;100.00;55229.56;4951926;29;20031;-58
2021/06/15 01:52:43;;;;;;;0.77;0.30;;;;;;;-148.58;100.00;55229.56;4951656;28;20035;-58
2021/06/15 01:55:10;;;;;;;0.50;0.17;;;;;;;-148.58;100.00;55229.56;5024896;28;20381;-58
2021/06/15 01:57:36;;;;;;;0.30;0.25;;;;;;;-148.58;100.00;55229.56;5036141;28;20028;-58
2021/06/15 02:00:09;;;;;;;0.50;0.10;;;;;;;-148.58;100.00;55229.56;5036115;28;20025;-58
2021/06/15 02:02:37;;;;;;;1.65;0.25;;;;;;;-148.58;100.00;55229.56;5035723;28;20045;-58
2021/06/15 02:05:07;;;;;;;0.10;0.03;;;;;;;-148.58;100.00;55229.56;5016279;28;20392;-57
2021/06/15 02:07:38;;;;;;;0.65;0.20;;;;;;;-148.58;100.00;55229.56;5016325;28;20029;-58
2021/06/15 02:10:11;;;;;;;0.22;0.10;;;;;;;-148.58;100.00;55229.56;5016249;28;20045;-58
2021/06/15 02:12:40;;;;;;;0.22;0.13;;;;;;;-148.58;100.00;55229.56;5016227;28;20061;-58
2021/06/15 02:15:08;;;;;;;1.27;0.20;;;;;;;-148.58;100.00;55229.56;5016481;28;20113;-57
2021/06/15 02:17:34;;;;;;;2.90;0.30;;;;;;;-148.58;100.00;55229.56;4998499;28;20022;-58
2021/06/15 02:19:59;;;;;;;0.20;0.20;;;;;;;-148.58;100.00;55229.56;5015944;28;20049;-58
2021/06/15 02:22:25;;;;;;;0.75;0.17;;;;;;;-148.58;100.00;55229.56;5015944;28;20022;-57
2021/06/15 02:24:55;;;;;;;0.30;0.17;;;;;;;-148.58;100.00;55229.56;5015889;28;20476;-58
2021/06/15 02:27:23;;;;;;;0.85;0.30;;;;;;;-148.58;100.00;55229.56;5016081;28;20026;-58
2021/06/15 02:29:50;;;;;;;0.82;0.30;;;;;;;-148.58;100.00;55229.56;5015727;28;20404;-57
2021/06/15 02:32:21;;;;;;;0.30;0.10;;;;;;;-148.58;100.00;55229.56;5015775;28;20063;-58
2021/06/15 02:34:49;;;;;;;0.68;0.28;;;;;;;-148.58;100.00;55229.56;5033705;28;20029;-58
2021/06/15 02:37:39;;;;;;;1.08;0.20;;;;;;;-148.58;100.00;55229.56;5035564;28;20029;-58
2021/06/15 02:40:06;;;;;;;0.95;0.20;;;;;;;-148.58;100.00;55229.56;5034743;28;20052;-57
2021/06/15 02:42:40;;;;;;;0.35;0.20;;;;;;;-148.58;100.00;55229.56;5035393;28;20040;-58
2021/06/15 02:45:06;;;;;;;1.10;0.17;;;;;;;-148.58;100.00;55229.56;5035405;28;20380;-58
2021/06/15 02:47:34;;;;;;;0.63;0.10;;;;;;;-148.58;100.00;55229.56;5035710;28;20354;-58
2021/06/15 02:50:01;;;;;;;0.50;0.20;;;;;;;-148.58;100.00;55229.56;5035249;28;20018;-58
2021/06/15 02:52:45;;;;;;;0.70;0.20;;;;;;;-148.58;100.00;55229.56;5035493;28;20017;-58
2021/06/15 02:55:28;;;;;;;0.40;0.20;;;;;;;-148.58;100.00;55229.56;5035305;28;20021;-58
2021/06/15 02:57:53;;;;;;;1.05;0.10;;;;;;;-148.58;100.00;55229.56;5019239;28;20021;-58
2021/06/15 03:00:20;;;;;;;0.40;0.10;;;;;;;-148.58;100.00;55229.56;5015363;28;20404;-58
2021/06/15 03:02:45;;;;;;;0.50;0.30;;;;;;;-148.58;100.00;55229.56;5018632;28;20045;-58
2021/06/15 03:05:16;;;;;;;0.05;0.03;;;;;;;-148.58;100.00;55229.56;5034164;28;20415;-58
2021/06/15 03:07:43;;;;;;;0.25;0.10;;;;;;;-148.58;100.00;55229.56;5035023;28;20025;-57
2021/06/15 03:10:09;;;;;;;0.35;0.13;;;;;;;-148.58;100.00;55229.56;5035558;28;20021;-58
2021/06/15 03:12:43;;;;;;;0.70;0.30;;;;;;;-148.58;100.00;55229.56;5034846;28;20029;-58
2021/06/15 03:15:12;;;;;;;0.60;0.22;;;;;;;-148.58;100.00;55229.56;5034868;28;20026;-58
2021/06/15 03:17:43;;;;;;;0.88;0.43;;;;;;;-148.58;100.00;55229.56;5034538;28;20384;-58
2021/06/15 03:20:11;;;;;;;0.93;0.20;;;;;;;-148.58;100.00;55229.56;5035067;28;20053;-58
2021/06/15 03:23:21;;;;;;;0.60;0.20;;;;;;;-148.58;100.00;55229.56;5034659;28;20415;-58
2021/06/15 03:25:47;;;;;;;0.50;0.22;;;;;;;-148.58;100.00;55229.56;4992671;28;20417;-58
2021/06/15 03:28:21;;;;;;;0.50;0.20;;;;;;;-148.58;100.00;55229.56;4992802;28;20159;-57
2021/06/15 03:30:49;;;;;;;0.55;0.10;;;;;;;-148.58;100.00;55229.56;4992667;28;20077;-58
2021/06/15 03:33:16;;;;;;;0.90;0.28;;;;;;;-148.58;100.00;55229.56;4992445;28;20064;-58
2021/06/15 03:35:44;;;;;;;1.55;0.22;;;;;;;-148.58;100.00;55229.56;4992594;28;20117;-58
2021/06/15 03:38:12;;;;;;;1.08;0.20;;;;;;;-148.58;100.00;55229.56;4992591;28;20030;-57
2021/06/15 03:40:43;;;;;;;0.77;0.25;;;;;;;-148.58;100.00;55229.56;4992587;28;20053;-58
2021/06/15 03:43:12;;;;;;;0.38;0.20;;;;;;;-148.58;100.00;55229.56;4992662;28;20093;-58
2021/06/15 03:45:41;;;;;;;0.40;0.20;;;;;;;-148.58;100.00;55229.56;4992462;28;20065;-58
2021/06/15 03:48:07;;;;;;;1.27;0.20;;;;;;;-148.58;100.00;55229.56;4992474;28;20026;-58
2021/06/15 03:50:37;;;;;;;0.40;0.10;;;;;;;-148.58;100.00;55229.56;4992420;28;20475;-58
2021/06/15 03:53:07;;;;;;;1.70;0.10;;;;;;;-148.58;100.00;55229.56;4991591;28;20093;-58
2021/06/15 03:55:35;;;;;;;0.17;0.00;;;;;;;-148.58;100.00;55229.56;4992325;28;20428;-58
2021/06/15 03:58:03;;;;;;;0.70;0.13;;;;;;;-148.58;100.00;55229.56;4975635;28;20031;-57
2021/06/15 04:00:29;;;;;;;0.22;0.08;;;;;;;-148.58;100.00;55229.56;4972780;28;20030;-58
2021/06/15 04:02:57;;;;;;;0.20;0.08;;;;;;;-148.58;100.00;55229.56;5017170;28;20045;-58
2021/06/15 04:05:28;;;;;;;0.15;0.10;;;;;;;-148.58;100.00;55229.56;5033966;28;20045;-57
2021/06/15 04:07:57;;;;;;;0.82;0.20;;;;;;;-148.58;100.00;55229.56;5033732;28;20029;-58
2021/06/15 04:10:23;;;;;;;1.02;0.40;;;;;;;-148.58;100.00;55229.56;5033797;28;20043;-57
2021/06/15 04:12:50;;;;;;;0.45;0.25;;;;;;;-148.58;100.00;55229.56;5033879;28;20453;-57
2021/06/15 04:15:17;;;;;;;0.13;0.00;;;;;;;-148.58;100.00;55229.56;5033701;28;20427;-58
2021/06/15 04:17:51;;;;;;;0.55;0.10;;;;;;;-148.58;100.00;55229.56;5032524;28;20025;-58
2021/06/15 04:20:23;;;;;;;0.10;0.10;;;;;;;-148.58;100.00;55229.56;5033607;28;20030;-58
2021/06/15 04:22:51;;;;;;;1.02;0.40;;;;;;;-148.58;100.00;55229.56;5033427;28;20025;-57
2021/06/15 04:25:29;;;;;;;0.00;0.00;;;;;;;-148.58;100.00;55229.56;5033915;28;20067;-58
2021/06/15 04:27:55;;;;;;;0.85;0.20;;;;;;;-148.58;100.00;55229.56;5033372;28;20037;-58
2021/06/15 04:30:21;;;;;;;0.57;0.10;;;;;;;-148.58;100.00;55229.56;5033386;28;20461;-57
2021/06/15 04:32:53;;;;;;;0.00;0.00;;;;;;;-148.58;100.00;55229.56;5032946;28;20021;-58
2021/06/15 04:35:32;;;;;;;0.32;0.00;;;;;;;-148.58;100.00;55229.56;5033208;28;20026;-58
2021/06/15 04:38:03;;;;;;;0.30;0.15;;;;;;;-148.58;100.00;55229.56;5032542;28;20460;-58
2021/06/15 04:40:35;;;;;;;0.10;0.10;;;;;;;-148.58;100.00;55229.56;5033288;28;20037;-58
2021/06/15 04:43:15;;;;;;;0.00;0.00;;;;;;;-148.58;100.00;55229.56;5033368;28;20028;-58
2021/06/15 04:45:44;;;;;;;0.63;0.15;;;;;;;-148.58;100.00;55229.56;5033107;28;20021;-58
2021/06/15 04:48:17;;;;;;;0.20;0.05;;;;;;;-148.58;100.00;55229.56;5031917;28;20044;-57
2021/06/15 04:50:42;;;;;;;0.57;0.20;;;;;;;-148.58;100.00;55229.56;5033008;28;20021;-58
2021/06/15 04:53:09;;;;;;;0.17;0.10;;;;;;;-148.58;100.00;55229.56;5033026;28;20026;-58
2021/06/15 04:55:38;;;;;;;0.20;0.00;;;;;;;-148.58;100.00;55229.56;5033050;28;20033;-57
2021/06/15 04:58:06;;;;;;;0.47;0.20;;;;;;;-148.58;100.00;55229.56;5032794;28;20021;-57
2021/06/15 05:00:32;;;;;;;1.35;0.10;;;;;;;-148.58;100.00;55229.56;5032910;28;20407;-58
2021/06/15 05:02:58;;;;;;;0.50;0.13;;;;;;;-148.58;100.00;55229.56;5032738;28;20083;-58
2021/06/15 05:05:25;;;;;;;0.22;0.00;;;;;;;-148.58;100.00;55229.56;5032676;28;20491;-57
2021/06/15 05:08:01;;;;;;;0.40;0.15;;;;;;;-148.58;100.00;55229.56;5032661;28;20036;-57
2021/06/15 05:10:31;;;;;;;0.20;0.13;;;;;;;-148.58;100.00;55229.56;5032836;28;20021;-58
2021/06/15 05:12:58;;;;;;;0.98;0.28;;;;;;;-148.58;100.00;55229.56;5032580;28;20100;-57
2021/06/15 05:15:26;;;;;;;0.38;0.25;;;;;;;-148.58;100.00;55229.56;5032817;28;20100;-57
2021/06/15 05:17:55;;;;;;;0.55;0.10;;;;;;;-148.58;100.00;55229.56;5032473;28;20064;-58
2021/06/15 05:20:21;;;;;;;0.65;0.10;;;;;;;-148.58;100.00;55229.56;5032620;28;20559;-58
2021/06/15 05:23:05;;;;;;;0.22;0.10;;;;;;;-148.58;100.00;55229.56;5032514;28;20100;-57
2021/06/15 05:25:31;;;;;;;0.40;0.05;;;;;;;-148.58;100.00;55229.56;5032715;28;20524;-58
2021/06/15 05:27:56;;;;;;;0.35;0.10;;;;;;;-148.58;100.00;55229.56;5032359;28;20029;-58
2021/06/15 05:30:23;;;;;;;1.42;0.10;;;;;;;-148.58;100.00;55229.56;5032405;28;20033;-58
2021/06/15 05:32:48;;;;;;;0.10;0.10;;;;;;;-148.58;100.00;55229.56;5032395;28;20105;-57
2021/06/15 05:35:14;;;;;;;0.77;0.10;;;;;;;-148.58;100.00;55229.56;5032144;28;20108;-58
2021/06/15 05:37:41;;;;;;;0.22;0.20;;;;;;;-148.58;100.00;55229.56;5031975;28;20148;-59
2021/06/15 05:40:07;;;;;;;0.43;0.00;;;;;;;-148.58;100.00;55229.56;5032358;28;20017;-58
2021/06/15 05:42:33;;;;;;;1.45;0.10;;;;;;;-148.58;100.00;55229.56;5032315;28;20040;-57
2021/06/15 05:44:58;;;;;;;0.17;0.00;;;;;;;-148.58;100.00;55229.56;5031009;28;20025;-58
2021/06/15 05:47:24;;;;;;;0.13;0.10;;;;;;;-148.58;100.00;55229.56;5032450;28;20473;-58
2021/06/15 05:49:49;;;;;;;0.10;0.03;;;;;;;-148.58;100.00;55229.56;5032211;28;20044;-58
2021/06/15 05:52:15;;;;;;;0.10;0.00;;;;;;;-148.58;100.00;55229.56;5031375;28;20064;-58
2021/06/15 05:54:41;;;;;;;0.70;0.30;;;;;;;-148.58;100.00;55229.56;5032165;28;20112;-58
2021/06/15 05:57:07;;;;;;;0.38;0.00;;;;;;;-148.58;100.00;55229.56;5032455;28;20010;-58
2021/06/15 05:59:32;;;;;;;0.38;0.10;;;;;;;-148.58;100.00;55229.56;5032170;28;20030;-58
2021/06/15 06:01:58;;;;;;;0.00;0.00;;;;;;;-148.58;100.00;55229.56;5032000;28;20465;-58
2021/06/15 06:09:53;;;;;;;;;;;;;;;-148.58;100.00;55229.56;4971372;28;20053;-58
2021/06/15 06:12:18;;;;;;;0.10;0.00;;;;;;;-148.58;100.00;55229.56;4971023;28;20427;-58
2021/06/15 06:14:44;;;;;;;0.57;0.10;;;;;;;-148.58;100.00;55229.56;4971164;28;20272;-58
2021/06/15 06:17:09;;;;;;;0.32;0.10;;;;;;;-148.58;100.00;55229.56;4971012;28;20529;-57
2021/06/15 06:19:35;;;;;;;0.28;0.00;;;;;;;-148.58;100.00;55229.56;4969747;28;20031;-58
2021/06/15 06:22:00;;;;;;;0.20;0.05;;;;;;;-148.58;100.00;55229.56;4969844;28;20023;-58
2021/06/15 06:24:27;;;;;;;0.40;0.10;;;;;;;-148.58;100.00;55229.56;4970577;28;20066;-57
2021/06/15 06:26:53;;;;;;;0.43;0.05;;;;;;;-148.58;100.00;55229.56;4970364;28;20514;-58
2021/06/15 06:29:19;;;;;;;0.80;0.10;;;;;;;-148.58;100.00;55229.56;4970585;28;20034;-58
2021/06/15 06:31:45;;;;;;;0.70;0.10;;;;;;;-148.58;100.00;55229.56;4970206;28;20039;-58
2021/06/15 06:34:11;;;;;;;0.25;0.10;;;;;;;-148.58;100.00;55229.56;4969532;28;20035;-58
2021/06/15 06:36:36;;;;;;;0.22;0.00;;;;;;;-148.58;100.00;55229.56;4970647;28;20436;-59
2021/06/15 06:39:04;;;;;;;0.10;0.00;;;;;;;-148.58;100.00;55229.56;4970593;28;20035;-58
2021/06/15 06:41:29;;;;;;;0.30;0.00;;;;;;;-148.58;100.00;55229.56;4973236;28;20137;-58
2021/06/15 06:43:54;;;;;;;0.20;0.00;;;;;;;-148.58;100.00;55229.56;4996037;28;20120;-58
2021/06/15 06:46:20;;;;;;;0.40;0.00;;;;;;;-148.58;100.00;55229.56;5035345;28;20036;-58
2021/06/15 06:48:45;;;;;;;0.20;0.10;;;;;;;-148.58;100.00;55229.56;5035472;28;20013;-58
2021/06/15 06:51:10;;;;;;;0.30;0.17;;;;;;;-148.58;100.00;55229.56;5035351;28;20033;-59
2021/06/15 06:53:36;;;;;;;0.75;0.20;;;;;;;-148.58;100.00;55229.56;5033912;28;20025;-59
2021/06/15 06:56:04;;;;;;;0.30;0.00;;;;;;;-148.58;100.00;55229.56;5035117;28;20028;-58
2021/06/15 06:58:29;;;;;;;0.20;0.08;;;;;;;-148.58;100.00;55229.56;5033574;28;20030;-58
2021/06/15 07:00:54;;;;;;;0.35;0.00;;;;;;;-148.58;100.00;55229.56;5034797;28;20091;-59
2021/06/15 07:03:19;;;;;;;0.20;0.10;;;;;;;-148.58;100.00;55229.56;5015342;28;20053;-58
2021/06/15 07:05:45;;;;;;;0.55;0.03;;;;;;;-148.58;100.00;55229.56;5032605;28;20049;-58
2021/06/15 07:08:10;;;;;;;0.15;0.00;;;;;;;-148.58;100.00;55229.56;5031820;28;20063;-58
2021/06/15 07:10:36;;;;;;;0.20;0.00;;;;;;;-148.58;100.00;55229.56;5015103;28;20022;-59
2021/06/15 07:13:02;;;;;;;0.45;0.13;;;;;;;-148.58;100.00;55229.56;5015214;28;20026;-58
2021/06/15 07:15:28;;;;;;;0.30;0.00;;;;;;;-148.58;100.00;55229.56;5015330;28;20034;-59
2021/06/15 07:17:54;;;;;;;0.40;0.10;;;;;;;-148.58;100.00;55229.56;5034648;28;20028;-61
2021/06/15 07:20:19;;;;;;;0.43;0.00;;;;;;;-148.58;100.00;55229.56;5034626;28;20029;-60
2021/06/15 07:22:45;;;;;;;0.00;0.00;;;;;;;-148.58;100.00;55229.56;5034543;28;20468;-60
2021/06/15 07:25:11;;;;;;;0.40;0.10;;;;;;;-148.58;100.00;55229.56;5035023;28;20381;-60
2021/06/15 07:27:37;;;;;;;0.73;0.10;;;;;;;-148.58;100.00;55229.56;5033572;28;20029;-60
2021/06/15 07:30:04;;;;;;;0.10;0.10;;;;;;;-148.58;100.00;55229.56;5034481;28;20017;-61
2021/06/15 07:32:30;;;;;;;0.60;0.17;;;;;;;-148.58;100.00;55229.56;5034550;28;20030;-60
2021/06/15 07:34:55;;;;;;;0.73;0.10;;;;;;;-148.58;100.00;55229.56;5033897;28;20067;-60
2021/06/15 07:37:21;;;;;;;0.35;0.10;;;;;;;-148.58;100.00;55229.56;5034539;28;20022;-59
2021/06/15 07:39:46;;;;;;;0.13;0.10;;;;;;;-148.58;100.00;55229.56;5034751;28;20040;-59
2021/06/15 07:42:13;;;;;;;1.08;0.05;;;;;;;-148.58;100.00;55229.56;5031205;28;20472;-60
2021/06/15 07:44:38;;;;;;;0.38;0.10;;;;;;;-148.58;100.00;55229.56;5022933;28;20036;-59
2021/06/15 07:47:03;;;;;;;1.65;0.20;;;;;;;-148.58;100.00;55229.56;5022452;28;20424;-60
2021/06/15 07:49:30;;;;;;;0.85;0.20;;;;;;;-148.58;100.00;55229.56;5022061;28;20029;-60
2021/06/15 07:51:55;;;;;;;0.00;0.00;;;;;;;-148.58;100.00;55229.56;5020235;28;20025;-60
2021/06/15 07:54:21;;;;;;;0.10;0.10;;;;;;;-148.58;100.00;55229.56;5004887;28;20032;-60
2021/06/15 07:56:46;;;;;;;1.77;0.13;;;;;;;-148.58;100.00;55229.56;5022205;28;20033;-61
2021/06/15 07:59:12;;;;;;;3.00;0.20;;;;;;;-148.58;100.00;55229.56;5021384;28;20032;-60
2021/06/15 08:01:37;;;;;;;0.52;0.10;;;;;;;-148.58;100.00;55229.56;5024033;28;20453;-61
2021/06/15 08:04:02;;;;;;;1.40;0.00;;;;;;;-148.58;100.00;55229.56;5020539;28;20046;-61
2021/06/15 08:06:28;;;;;;;2.72;0.08;;;;;;;-148.58;100.00;55229.56;5023206;28;20022;-60
2021/06/15 08:08:53;;;;;;;0.38;0.10;;;;;;;-148.58;100.00;55229.56;5022566;28;20473;-60
2021/06/15 08:11:18;;;;;;;0.00;0.00;;;;;;;-148.58;100.00;55229.56;5023850;28;20539;-60
2021/06/15 08:13:44;;;;;;;1.27;0.17;;;;;;;-148.58;100.00;55229.56;5023466;28;20021;-60
2021/06/15 08:16:10;;;;;;;0.15;0.00;;;;;;;-148.58;100.00;55229.56;5026772;28;20087;-60
2021/06/15 08:18:35;;;;;;;0.60;0.10;;;;;;;-148.58;100.00;55229.56;5023033;28;20018;-60
2021/06/15 08:21:00;;;;;;;0.00;0.00;;;;;;;-148.58;100.00;55229.56;5026839;28;20029;-60
2021/06/15 08:23:28;;;;;;;0.30;0.08;;;;;;;-148.58;100.00;55229.56;5021918;28;20147;-60
2021/06/15 08:25:54;;;;;;;0.73;0.10;;;;;;;-148.58;100.00;55229.56;5021958;28;20106;-60
2021/06/15 08:28:19;;;;;;;0.03;0.00;;;;;;;-148.58;100.00;55229.56;5023082;28;20523;-60
2021/06/15 08:30:45;;;;;;;0.38;0.10;;;;;;;-148.58;100.00;55229.56;5021467;28;20026;-60
2021/06/15 08:33:10;;;;;;;0.22;0.20;;;;;;;-148.58;100.00;55229.56;5022867;28;20376;-60
2021/06/15 08:35:35;;;;;;;0.40;0.00;;;;;;;-148.58;100.00;55229.56;5021602;28;20044;-60
2021/06/15 08:38:01;;;;;;;0.13;0.10;;;;;;;-148.58;100.00;55229.56;5024557;28;20029;-59
2021/06/15 08:40:27;;;;;;;0.55;0.05;;;;;;;-148.58;100.00;55229.56;5021192;28;20385;-60
2021/06/15 08:42:53;;;;;;;0.20;0.03;;;;;;;-148.58;100.00;55229.56;5022502;28;20491;-60
2021/06/15 08:45:19;;;;;;;0.22;0.10;;;;;;;-148.58;100.00;55229.56;5022969;28;20042;-60
2021/06/15 08:47:47;;;;;;;1.88;0.20;;;;;;;-148.58;100.00;55229.56;5021594;28;20022;-61
2021/06/15 08:50:17;;;;;;;1.13;0.00;;;;;;;-148.58;100.00;55229.56;5020751;28;20148;-61
2021/06/15 08:52:42;;;;;;;0.35;0.08;;;;;;;-148.58;100.00;55229.56;5023900;28;20072;-61
2021/06/15 08:55:08;;;;;;;0.20;0.00;;;;;;;-148.58;100.00;55229.56;5020922;28;20499;-61
2021/06/15 08:57:35;;;;;;;0.20;0.17;;;;;;;-148.58;100.00;55229.56;5023387;28;20021;-62
2021/06/15 09:00:01;;;;;;;0.13;0.10;;;;;;;-148.58;100.00;55229.56;5004930;28;20364;-61
2021/06/15 09:02:27;;;;;;;0.10;0.00;;;;;;;-148.58;100.00;55229.56;5019645;28;20301;-62
2021/06/15 09:04:53;;;;;;;0.50;0.20;;;;;;;-148.58;100.00;55229.56;5021259;28;20029;-61
2021/06/15 09:07:19;;;;;;;0.17;0.10;;;;;;;-148.58;100.00;55229.56;5020939;28;20037;-62
2021/06/15 09:09:49;;;;;;;0.47;0.17;;;;;;;-148.58;100.00;55229.56;5022509;28;20108;-62
2021/06/15 09:12:16;;;;;;;0.40;0.10;;;;;;;-148.58;100.00;55229.56;5022205;28;20029;-61
2021/06/15 09:14:53;;;;;;;0.35;0.00;;;;;;;-148.58;100.00;55229.56;5029856;28;20095;-63
2021/06/15 09:17:28;;;;;;;0.70;0.10;;;;;;;-148.58;100.00;55229.56;5032747;28;20108;-62
2021/06/15 09:19:55;;;;;;;0.52;0.20;;;;;;;-148.58;100.00;55229.56;5032563;28;20021;-62
2021/06/15 09:22:23;;;;;;;1.38;0.10;;;;;;;-148.58;100.00;55229.56;5033015;28;20029;-62
2021/06/15 09:24:49;;;;;;;0.43;0.00;;;;;;;-148.58;100.00;55229.56;5032302;28;20083;-62
2021/06/15 09:27:15;;;;;;;1.13;0.20;;;;;;;-148.58;100.00;55229.56;5032489;28;20477;-62
2021/06/15 09:29:52;;;;;;;0.35;0.20;;;;;;;-148.58;100.00;55229.56;5032548;28;20372;-62
2021/06/15 09:32:36;;;;;;;0.52;0.10;;;;;;;-148.58;100.00;55229.56;5031804;28;20116;-62
2021/06/15 09:35:10;;;;;;;0.20;0.10;;;;;;;-148.58;100.00;55229.56;5030764;28;20041;-62
2021/06/15 09:37:43;;;;;;;0.57;0.10;;;;;;;-148.58;100.00;55229.56;5031786;28;20037;-61
2021/06/15 09:40:29;;;;;;;0.10;0.10;;;;;;;-148.58;100.00;55229.56;5031605;28;20037;-60
2021/06/15 09:43:12;;;;;;;0.47;0.10;;;;;;;-148.58;100.00;55229.56;5031444;28;20075;-60
2021/06/15 09:45:42;;;;;;;0.30;0.10;;;;;;;-148.58;100.00;55229.56;5032140;28;20029;-60
2021/06/15 09:48:25;;;;;;;0.17;0.05;;;;;;;-148.58;100.00;55229.56;5028865;28;20108;-61
2021/06/15 09:50:53;;;;;;;0.77;0.10;;;;;;;-148.58;100.00;55229.56;5032219;28;20026;-60
2021/06/15 09:53:32;;;;;;;0.50;0.10;;;;;;;-148.58;100.00;55229.56;5030841;28;20048;-60
2021/06/15 09:56:00;;;;;;;0.00;0.00;;;;;;;-148.58;100.00;55229.56;5017923;28;20072;-60
2021/06/15 09:58:42;;;;;;;0.93;0.10;;;;;;;-148.58;100.00;55229.56;5021932;28;20029;-60
2021/06/15 10:01:07;;;;;;;0.32;0.10;;;;;;;-148.58;100.00;55229.56;5034932;28;20041;-60
2021/06/15 10:03:32;;;;;;;0.17;0.05;;;;;;;-148.58;100.00;55229.56;5025826;28;20385;-61
2021/06/15 10:05:58;;;;;;;0.20;0.10;;;;;;;-148.58;100.00;55229.56;5021600;28;20109;-60
2021/06/15 10:08:40;;;;;;;0.20;0.08;;;;;;;-148.58;100.00;55229.56;5011169;28;20030;-60
2021/06/15 10:11:06;;;;;;;0.28;0.00;;;;;;;-148.58;100.00;55229.56;5023739;28;20382;-61
2021/06/15 10:13:32;;;;;;;0.25;0.10;;;;;;;-148.58;100.00;55229.56;5031191;28;20025;-60
2021/06/15 10:15:57;;;;;;;0.00;0.00;;;;;;;-148.58;100.00;55229.56;5035110;28;20407;-60
2021/06/15 10:18:22;;;;;;;0.73;0.10;;;;;;;-148.58;100.00;55229.56;5028031;28;20026;-61
2021/06/15 10:20:48;;;;;;;0.00;0.00;;;;;;;-148.58;100.00;55229.56;5031062;28;20463;-61
2021/06/15 10:23:15;;;;;;;0.10;0.05;;;;;;;-148.58;100.00;55229.56;5034278;28;20044;-61
2021/06/15 10:25:42;;;;;;;0.50;0.15;;;;;;;-148.58;100.00;55229.56;5034432;28;20033;-61
2021/06/15 10:28:11;;;;;;;0.30;0.00;;;;;;;-148.58;100.00;55229.56;5034379;28;20032;-61
2021/06/15 10:30:38;;;;;;;0.40;0.03;;;;;;;-148.58;100.00;55229.56;5034219;28;20033;-61
2021/06/15 10:33:15;;;;;;;0.10;0.00;;;;;;;-148.58;100.00;55229.56;5034400;28;20013;-61
2021/06/15 10:35:49;;;;;;;0.90;0.10;;;;;;;-148.58;100.00;55229.56;5034138;28;20025;-61
2021/06/15 10:38:46;;;;;;;0.65;0.20;;;;;;;-148.58;100.00;55229.56;5034373;28;20087;-61
2021/06/15 10:41:24;;;;;;;0.00;0.00;;;;;;;-148.58;100.00;55229.56;5029830;28;20135;-61
2021/06/15 10:43:57;;;;;;;0.28;0.03;;;;;;;-148.58;100.00;55229.56;5035492;28;20022;-61
2021/06/15 10:46:34;;;;;;;0.00;0.00;;;;;;;-148.58;100.00;55229.56;5035472;28;20038;-61
2021/06/15 10:49:14;;;;;;;0.10;0.10;;;;;;;-148.58;100.00;55229.56;5035383;28;20104;-61
2021/06/15 10:51:41;;;;;;;0.13;0.00;;;;;;;-148.58;100.00;55229.56;5035340;28;20096;-61
2021/06/15 10:54:42;;;;;;;0.50;0.10;;;;;;;-148.58;100.00;55229.56;5035294;28;20017;-61
2021/06/15 10:57:18;;;;;;;0.05;0.00;;;;;;;-148.58;100.00;55229.56;4954528;29;20042;-60
2021/06/15 11:00:26;;;;;;;0.38;0.10;;;;;;;-148.58;100.00;55229.56;4953285;29;20081;-61
2021/06/15 11:03:15;;;;;;;0.10;0.10;;;;;;;-148.58;100.00;55229.56;4897292;29;20057;-60
2021/06/15 11:05:42;;;;;;;0.08;0.00;;;;;;;-148.58;100.00;55229.56;4890759;29;20029;-60
2021/06/15 11:08:18;;;;;;;0.00;0.00;;;;;;;-148.58;100.00;55229.56;4886210;29;20034;-61
2021/06/15 11:10:53;;;;;;;0.30;0.20;;;;;;;-148.58;100.00;55229.56;4882295;29;20041;-60
2021/06/15 11:13:45;;;;;;;0.00;0.00;;;;;;;-148.58;100.00;55229.56;4878856;29;20104;-60
2021/06/15 11:16:21;;;;;;;0.13;0.03;;;;;;;-148.58;100.00;55229.56;4894254;29;20103;-60
2021/06/15 11:18:46;;;;;;;0.20;0.15;;;;;;;-148.58;100.00;55229.56;4908124;29;20039;-60
2021/06/15 11:21:24;;;;;;;0.20;0.00;;;;;;;-148.58;100.00;55229.56;4896933;29;20032;-60
2021/06/15 11:23:49;;;;;;;0.13;0.10;;;;;;;-148.58;100.00;55229.56;4894498;29;20044;-61
2021/06/15 11:26:15;;;;;;;0.20;0.10;;;;;;;-148.58;100.00;55229.56;4896078;29;20591;-60